Niagara, Wisconsin
Current Conditions -  °F | °C
As of 2:54 AM on Friday 31 Oct 2014 (Local Time) from KIMT Reporting Station
Overcast Overcast  
Wind Chill: 23°   Ceiling: 2200
Heat Index: 34°   Visibility: 10mi
Dew Point: 27°   Wind: 18mph
Humidity: 75%   Direction: 350°N
Pressure: 30.09"   Gusts: 26mph
Location:  45.77°N, 87.99°W
Report Text: KIMT 310754Z AUTO 35016G23KT 10SM BKN022 OVC032 01/M03 A3009 RMK AO2 PK WND 34027/0704 UPB29E38 SLP202 P0000 T00111028
Loading
Personal Weather Stations






























Interactive Weather Map
Tropical Storm Tracking
New forecast layout! Learn more

10-Day Weather Forecast

Advertisements
Track Severe Weather on mobile